Time;durP1;ratioP1;P1;durP2;ratioP2;P2;SDS_P1;SDS_P2;PMS_P1;PMS_P2;Temp;Humidity;BMP_temperature;BMP_pressure;BME280_temperature;BME280_humidity;BME280_pressure;Samples;Min_cycle;Max_cycle;Signal;HPM_P1;HPM_P2
2023/03/08 00:00:04;;;;;;;0.60;0.60;;;-0.20;99.90;;;;;;6217164;23;20012;-76
2023/03/08 00:02:29;;;;;;;0.63;0.63;;;-0.10;99.90;;;;;;6191205;23;20325;-76
2023/03/08 00:04:56;;;;;;;0.50;0.50;;;-0.10;99.90;;;;;;6217209;23;20012;-76
2023/03/08 00:07:22;;;;;;;0.60;0.60;;;-0.30;99.90;;;;;;6215217;23;20008;-76
2023/03/08 00:09:48;;;;;;;0.70;0.70;;;-0.30;99.90;;;;;;6217221;23;20013;-77
2023/03/08 00:12:13;;;;;;;0.50;0.50;;;-0.10;99.90;;;;;;6215377;23;20047;-76
2023/03/08 00:14:39;;;;;;;0.65;0.65;;;-0.30;99.90;;;;;;6190397;23;20011;-77
2023/03/08 00:17:05;;;;;;;0.50;0.50;;;-0.20;99.90;;;;;;6217021;23;20008;-77
2023/03/08 00:19:31;;;;;;;0.63;0.63;;;-0.40;99.90;;;;;;6215194;23;20555;-76
2023/03/08 00:21:56;;;;;;;0.70;0.70;;;-0.40;99.90;;;;;;6216988;23;20016;-77
2023/03/08 00:24:22;;;;;;;0.50;0.50;;;-0.50;99.90;;;;;;6240722;23;20020;-76
2023/03/08 00:26:48;;;;;;;0.60;0.60;;;-0.60;99.90;;;;;;6216892;23;20330;-76
2023/03/08 00:29:14;;;;;;;0.50;0.50;;;-0.60;99.90;;;;;;6217092;23;20012;-76
2023/03/08 00:31:40;;;;;;;0.55;0.55;;;-0.50;99.90;;;;;;6215166;23;20438;-76
2023/03/08 00:34:05;;;;;;;0.60;0.60;;;-0.40;99.90;;;;;;6215266;23;20012;-76
2023/03/08 00:36:31;;;;;;;0.60;0.60;;;-0.50;99.90;;;;;;6190208;23;20028;-76
2023/03/08 00:38:57;;;;;;;0.70;0.70;;;-0.50;99.90;;;;;;6215474;23;20009;-77
2023/03/08 00:41:22;;;;;;;0.50;0.50;;;-0.40;99.90;;;;;;6190128;23;20059;-76
2023/03/08 00:43:48;;;;;;;0.60;0.60;;;-0.60;99.90;;;;;;6190334;23;20016;-77
2023/03/08 00:46:15;;;;;;;0.50;0.50;;;-0.50;99.90;;;;;;6215624;23;20110;-77
2023/03/08 00:48:41;;;;;;;0.57;0.57;;;-0.60;99.90;;;;;;6215199;23;20009;-77
2023/03/08 00:51:07;;;;;;;0.57;0.57;;;-0.60;99.90;;;;;;6216822;23;20020;-76
2023/03/08 00:53:33;;;;;;;0.70;0.70;;;-0.40;99.90;;;;;;6240315;23;20016;-76
2023/03/08 00:55:59;;;;;;;0.70;0.70;;;-0.60;99.90;;;;;;6189897;23;20012;-76
2023/03/08 00:58:29;;;;;;;0.60;0.60;;;-0.40;99.90;;;;;;6215029;23;20015;-76
2023/03/08 01:00:55;;;;;;;0.60;0.60;;;-0.60;99.90;;;;;;6216412;23;20012;-76
2023/03/08 01:03:21;;;;;;;0.50;0.50;;;-0.50;99.90;;;;;;6215431;23;20063;-77
2023/03/08 01:05:49;;;;;;;0.70;0.70;;;-0.70;99.90;;;;;;6216863;23;20032;-77
2023/03/08 01:08:16;;;;;;;0.85;0.60;;;-0.50;99.90;;;;;;6190802;23;20012;-77
2023/03/08 01:10:47;;;;;;;0.50;0.50;;;-0.50;99.90;;;;;;6214783;23;20013;-77
2023/03/08 01:13:13;;;;;;;0.50;0.50;;;-0.50;99.90;;;;;;6216632;23;20012;-77
2023/03/08 01:15:39;;;;;;;0.70;0.70;;;-0.50;99.90;;;;;;6189963;23;20016;-76
2023/03/08 01:18:05;;;;;;;0.70;0.70;;;-0.70;99.90;;;;;;6214756;23;20020;-77
2023/03/08 01:20:31;;;;;;;0.60;0.60;;;-0.70;99.90;;;;;;6214655;23;20021;-77
2023/03/08 01:22:57;;;;;;;0.50;0.50;;;-0.50;99.90;;;;;;6214882;23;20013;-77
2023/03/08 01:25:23;;;;;;;0.70;0.70;;;-0.50;99.90;;;;;;6240240;23;20009;-77
2023/03/08 01:27:49;;;;;;;0.60;0.60;;;-0.60;99.90;;;;;;6214827;23;20009;-77
2023/03/08 01:30:15;;;;;;;0.60;0.60;;;-0.80;99.90;;;;;;6214663;23;20016;-76
2023/03/08 01:32:41;;;;;;;0.60;0.60;;;-0.70;99.90;;;;;;6240417;23;20008;-76
2023/03/08 01:35:07;;;;;;;0.50;0.50;;;-0.80;99.90;;;;;;6216506;23;20015;-76
2023/03/08 01:37:33;;;;;;;0.60;0.60;;;-0.70;99.90;;;;;;6216063;23;20012;-76
2023/03/08 01:39:59;;;;;;;0.65;0.65;;;-0.80;99.90;;;;;;6216475;23;20070;-77
2023/03/08 01:42:26;;;;;;;0.68;0.68;;;-0.80;99.90;;;;;;6214578;23;20342;-77
2023/03/08 01:44:56;;;;;;;0.57;0.57;;;-0.70;99.90;;;;;;6214580;23;20021;-76
2023/03/08 01:47:27;;;;;;;0.60;0.60;;;-0.90;99.90;;;;;;6214565;23;20043;-77
2023/03/08 01:49:57;;;;;;;0.60;0.60;;;-0.70;99.90;;;;;;6189467;23;20012;-77
2023/03/08 01:52:32;;;;;;;0.82;0.82;;;-0.90;99.90;;;;;;6214838;23;20048;-77
2023/03/08 01:55:02;;;;;;;0.57;0.57;;;-0.90;99.90;;;;;;6214246;23;20071;-77
2023/03/08 01:57:36;;;;;;;0.80;0.80;;;-1.00;99.90;;;;;;6214609;23;20021;-76
2023/03/08 02:00:14;;;;;;;0.63;0.63;;;-0.80;99.90;;;;;;6214505;23;20017;-76
2023/03/08 02:03:01;;;;;;;0.52;0.52;;;-1.10;99.90;;;;;;6214412;23;20012;-77
2023/03/08 02:05:28;;;;;;;0.65;0.65;;;-1.00;99.90;;;;;;6189210;23;20464;-76
2023/03/08 02:07:54;;;;;;;0.60;0.60;;;-0.90;99.90;;;;;;6214346;23;20013;-77
2023/03/08 02:10:20;;;;;;;0.50;0.50;;;-1.10;99.90;;;;;;6240029;23;20012;-77
2023/03/08 02:12:46;;;;;;;0.70;0.70;;;-1.10;99.90;;;;;;6214623;23;20008;-77
2023/03/08 02:15:16;;;;;;;0.50;0.50;;;-1.10;99.90;;;;;;6214260;23;20067;-76
2023/03/08 02:17:42;;;;;;;0.70;0.70;;;-1.00;99.90;;;;;;6214919;23;20016;-76
2023/03/08 02:20:14;;;;;;;0.70;0.70;;;-0.90;99.90;;;;;;6214208;23;20374;-77
2023/03/08 02:22:41;;;;;;;0.60;0.60;;;-1.10;99.90;;;;;;6239973;23;20414;-76
2023/03/08 02:25:17;;;;;;;0.63;0.63;;;-1.00;99.90;;;;;;6216247;23;20012;-77
2023/03/08 02:27:43;;;;;;;0.60;0.60;;;-1.00;99.90;;;;;;6216252;23;20013;-77
2023/03/08 02:30:11;;;;;;;0.60;0.60;;;-1.20;99.90;;;;;;6216230;23;20020;-76
2023/03/08 02:32:37;;;;;;;0.60;0.60;;;-1.20;99.90;;;;;;6216170;23;20333;-76
2023/03/08 02:35:03;;;;;;;0.70;0.70;;;-1.00;99.90;;;;;;6217100;23;20008;-77
2023/03/08 02:37:31;;;;;;;0.75;0.75;;;-0.90;99.90;;;;;;6216207;23;20016;-77
2023/03/08 02:39:57;;;;;;;0.73;0.73;;;-1.00;99.90;;;;;;6217682;23;20027;-77
2023/03/08 02:42:23;;;;;;;0.63;0.63;;;-1.00;99.90;;;;;;6191049;23;20016;-77
2023/03/08 02:44:48;;;;;;;0.70;0.70;;;-1.20;99.90;;;;;;6191171;23;20095;-76
2023/03/08 02:47:15;;;;;;;0.60;0.60;;;-1.30;99.90;;;;;;6216019;23;20013;-77
2023/03/08 02:49:40;;;;;;;0.60;0.60;;;-1.40;99.90;;;;;;6217931;23;20087;-76
2023/03/08 02:52:06;;;;;;;0.60;0.60;;;-1.30;99.90;;;;;;6216010;23;20450;-76
2023/03/08 02:54:32;;;;;;;0.80;0.80;;;-1.10;99.90;;;;;;6215777;23;20446;-77
2023/03/08 02:56:58;;;;;;;0.70;0.70;;;-1.10;99.90;;;;;;6216006;23;20064;-76
2023/03/08 02:59:24;;;;;;;0.70;0.70;;;-1.20;99.90;;;;;;6216042;23;20016;-76
2023/03/08 03:01:49;;;;;;;0.60;0.60;;;-1.20;99.90;;;;;;6215822;23;20040;-77
2023/03/08 03:04:15;;;;;;;0.70;0.70;;;-1.00;99.90;;;;;;6217743;23;20020;-76
2023/03/08 03:06:40;;;;;;;0.70;0.70;;;-1.00;99.90;;;;;;6215771;23;20533;-76
2023/03/08 03:09:07;;;;;;;0.70;0.70;;;-1.00;99.90;;;;;;6215938;23;20084;-77
2023/03/08 03:11:33;;;;;;;0.60;0.60;;;-0.90;99.90;;;;;;6215807;23;20083;-77
2023/03/08 03:13:59;;;;;;;0.60;0.60;;;-1.20;99.90;;;;;;6215859;23;20397;-76
2023/03/08 03:16:25;;;;;;;0.60;0.60;;;-1.30;99.90;;;;;;6217367;23;20031;-77
2023/03/08 03:18:53;;;;;;;0.60;0.60;;;-1.10;99.90;;;;;;6215810;23;20067;-76
2023/03/08 03:21:19;;;;;;;0.70;0.70;;;-1.20;99.90;;;;;;6191088;23;20092;-77
2023/03/08 03:23:45;;;;;;;0.70;0.70;;;-1.20;99.90;;;;;;6217669;23;20040;-77
2023/03/08 03:26:21;;;;;;;0.60;0.60;;;-1.00;99.90;;;;;;6190513;23;20017;-77
2023/03/08 03:28:47;;;;;;;0.80;0.80;;;-1.00;99.90;;;;;;6190931;23;20312;-77
2023/03/08 03:31:19;;;;;;;0.70;0.70;;;-0.90;99.90;;;;;;6215787;23;20071;-77
2023/03/08 03:33:46;;;;;;;0.60;0.60;;;-1.10;99.90;;;;;;6216271;23;20012;-77
2023/03/08 03:36:14;;;;;;;0.63;0.63;;;-1.20;99.90;;;;;;6215316;23;20056;-77
2023/03/08 03:38:41;;;;;;;0.70;0.70;;;-0.90;99.90;;;;;;6215649;23;20084;-77
2023/03/08 03:41:12;;;;;;;0.68;0.68;;;-1.10;99.90;;;;;;6217108;23;20461;-77
2023/03/08 03:43:38;;;;;;;0.80;0.80;;;-1.20;99.90;;;;;;6217637;23;20036;-76
2023/03/08 03:46:07;;;;;;;0.60;0.60;;;-1.00;99.90;;;;;;6215483;23;20112;-77
2023/03/08 03:48:36;;;;;;;0.75;0.75;;;-1.20;99.90;;;;;;6190299;23;20071;-77
2023/03/08 03:51:08;;;;;;;0.80;0.80;;;-1.30;99.90;;;;;;6240807;23;20039;-77
2023/03/08 03:53:34;;;;;;;0.68;0.68;;;-1.20;99.90;;;;;;6215162;23;20032;-76
2023/03/08 03:56:11;;;;;;;0.70;0.70;;;-1.20;99.90;;;;;;6215493;23;20066;-76
2023/03/08 03:58:36;;;;;;;0.60;0.60;;;-1.30;99.90;;;;;;6190492;23;20030;-77
2023/03/08 04:01:25;;;;;;;0.73;0.73;;;-1.50;99.90;;;;;;6216327;23;20418;-76
2023/03/08 04:03:51;;;;;;;0.60;0.60;;;-1.50;99.90;;;;;;6217422;23;20031;-76
2023/03/08 04:06:20;;;;;;;0.70;0.70;;;-1.40;99.90;;;;;;6217293;23;20107;-76
2023/03/08 04:08:46;;;;;;;0.80;0.80;;;-1.40;99.90;;;;;;6216986;23;20015;-77
2023/03/08 04:11:14;;;;;;;0.60;0.60;;;-1.60;99.90;;;;;;6216003;23;20012;-77
2023/03/08 04:13:40;;;;;;;0.70;0.70;;;-1.60;99.90;;;;;;6215613;23;20019;-77
2023/03/08 04:16:10;;;;;;;0.70;0.70;;;-1.40;99.90;;;;;;6217293;23;20008;-77
2023/03/08 04:18:36;;;;;;;0.70;0.70;;;-1.60;99.90;;;;;;6216859;23;20047;-77
2023/03/08 04:21:02;;;;;;;0.70;0.70;;;-1.50;99.90;;;;;;6215315;23;20020;-77
2023/03/08 04:23:27;;;;;;;0.75;0.75;;;-1.40;99.90;;;;;;6217149;23;20012;-77
2023/03/08 04:25:53;;;;;;;0.60;0.60;;;-1.60;99.90;;;;;;6215054;23;20017;-77
2023/03/08 04:28:18;;;;;;;0.65;0.65;;;-1.70;99.90;;;;;;6215362;23;20091;-77
2023/03/08 04:30:44;;;;;;;0.65;0.65;;;-1.50;99.90;;;;;;6215257;23;20012;-77
2023/03/08 04:33:09;;;;;;;0.70;0.70;;;-1.50;99.90;;;;;;6190191;23;20338;-77
2023/03/08 04:35:35;;;;;;;0.70;0.70;;;-1.40;99.90;;;;;;6189992;23;20342;-77
2023/03/08 04:38:01;;;;;;;0.73;0.73;;;-1.50;99.90;;;;;;6189985;23;20019;-77
2023/03/08 04:40:26;;;;;;;0.70;0.70;;;-1.30;99.90;;;;;;6240740;23;20009;-77
2023/03/08 04:42:52;;;;;;;0.70;0.70;;;-1.40;99.90;;;;;;6215139;23;20005;-77
2023/03/08 04:45:17;;;;;;;0.73;0.73;;;-1.40;99.90;;;;;;6214959;23;20013;-77
2023/03/08 04:47:43;;;;;;;0.60;0.60;;;-1.40;99.90;;;;;;6214380;23;20009;-77
2023/03/08 04:50:09;;;;;;;0.60;0.60;;;-1.40;99.90;;;;;;6214951;23;20063;-77
2023/03/08 04:52:35;;;;;;;0.80;0.80;;;-1.40;99.90;;;;;;6240678;23;20009;-77
2023/03/08 04:55:01;;;;;;;0.60;0.60;;;-1.20;99.90;;;;;;6240010;23;20027;-77
2023/03/08 04:57:26;;;;;;;0.60;0.60;;;-1.40;99.90;;;;;;6216725;23;20023;-77
2023/03/08 04:59:52;;;;;;;0.60;0.60;;;-1.20;99.90;;;;;;6189855;23;20059;-77
2023/03/08 05:02:18;;;;;;;0.60;0.60;;;-1.10;99.90;;;;;;6214773;23;20333;-77
2023/03/08 05:04:43;;;;;;;0.65;0.65;;;-1.30;99.90;;;;;;6215203;23;20016;-77
2023/03/08 05:07:09;;;;;;;0.70;0.70;;;-1.30;99.90;;;;;;6214668;23;20058;-77
2023/03/08 05:09:35;;;;;;;0.80;0.80;;;-1.30;99.90;;;;;;6214695;23;20013;-77
2023/03/08 05:12:00;;;;;;;0.70;0.70;;;-1.20;99.90;;;;;;6216186;23;20374;-76
2023/03/08 05:14:26;;;;;;;0.70;0.70;;;-1.10;99.90;;;;;;6214757;23;20099;-77
2023/03/08 05:16:55;;;;;;;0.80;0.80;;;-1.30;99.90;;;;;;6216489;23;20099;-76
2023/03/08 05:19:21;;;;;;;0.70;0.70;;;-1.30;99.90;;;;;;6214616;23;20019;-77
2023/03/08 05:21:46;;;;;;;0.70;0.70;;;-1.30;99.90;;;;;;6216495;23;20414;-77
2023/03/08 05:24:12;;;;;;;0.60;0.60;;;-1.20;99.90;;;;;;6189824;23;20020;-76
2023/03/08 05:26:38;;;;;;;0.68;0.68;;;-1.30;99.90;;;;;;6216471;23;20017;-77
2023/03/08 05:29:05;;;;;;;0.70;0.70;;;-1.50;99.90;;;;;;6189636;23;20345;-77
2023/03/08 05:31:31;;;;;;;0.70;0.70;;;-1.30;99.90;;;;;;6216345;23;20055;-77
2023/03/08 05:33:57;;;;;;;0.75;0.75;;;-1.40;99.90;;;;;;6214538;23;20013;-77
2023/03/08 05:36:22;;;;;;;0.70;0.70;;;-1.50;99.90;;;;;;6189444;23;20013;-77
2023/03/08 05:38:54;;;;;;;0.70;0.70;;;-1.60;99.90;;;;;;6216507;23;20034;-77
2023/03/08 05:41:20;;;;;;;0.63;0.63;;;-1.70;99.90;;;;;;6214573;23;20023;-77
2023/03/08 05:43:46;;;;;;;0.70;0.70;;;-1.60;99.90;;;;;;6216536;23;20035;-77
2023/03/08 05:46:15;;;;;;;0.65;0.65;;;-1.60;99.90;;;;;;6214801;23;20005;-77
2023/03/08 05:48:40;;;;;;;0.70;0.70;;;-1.70;99.90;;;;;;6239919;23;20442;-77
2023/03/08 05:51:13;;;;;;;0.70;0.70;;;-1.60;99.90;;;;;;6214444;23;20023;-77
2023/03/08 05:53:39;;;;;;;0.82;0.82;;;-1.70;99.90;;;;;;6214692;23;20013;-77
2023/03/08 05:56:17;;;;;;;0.70;0.70;;;-1.80;99.90;;;;;;6216227;23;20078;-77
2023/03/08 05:58:43;;;;;;;0.75;0.75;;;-1.50;99.90;;;;;;6216256;23;20019;-77
2023/03/08 06:01:18;;;;;;;0.60;0.60;;;-1.60;99.90;;;;;;6214344;23;20341;-77
2023/03/08 06:03:49;;;;;;;0.60;0.60;;;-1.60;99.90;;;;;;6214781;23;20092;-76
2023/03/08 06:06:15;;;;;;;0.60;0.60;;;-1.60;99.90;;;;;;6189238;23;20091;-77
2023/03/08 06:08:41;;;;;;;0.80;0.80;;;-1.80;99.90;;;;;;6240032;23;20047;-77
2023/03/08 06:11:07;;;;;;;0.60;0.60;;;-1.70;99.90;;;;;;6189253;23;20009;-77
2023/03/08 06:13:34;;;;;;;0.60;0.60;;;-1.60;99.90;;;;;;6216401;23;20051;-77
2023/03/08 06:16:00;;;;;;;0.70;0.70;;;-1.80;99.90;;;;;;6214326;23;20015;-76
2023/03/08 06:18:26;;;;;;;0.60;0.60;;;-1.70;99.90;;;;;;6216302;23;20044;-77
2023/03/08 06:21:00;;;;;;;0.70;0.70;;;-1.60;99.90;;;;;;6214635;23;20019;-77
2023/03/08 06:23:28;;;;;;;0.63;0.63;;;-1.90;99.90;;;;;;6214332;23;20005;-77
2023/03/08 06:25:54;;;;;;;0.70;0.70;;;-1.60;99.90;;;;;;6214126;23;20336;-77
2023/03/08 06:28:19;;;;;;;0.60;0.60;;;-1.70;99.90;;;;;;6189295;23;20019;-77
2023/03/08 06:30:49;;;;;;;0.70;0.70;;;-1.80;99.90;;;;;;6189161;23;20084;-77
2023/03/08 06:33:21;;;;;;;0.70;0.70;;;-1.80;99.90;;;;;;6214216;23;20015;-77
2023/03/08 06:36:10;;;;;;;0.80;0.80;;;-1.70;99.90;;;;;;6214156;23;20016;-77
2023/03/08 06:38:38;;;;;;;0.63;0.63;;;-1.80;99.90;;;;;;6214218;23;20062;-76
2023/03/08 06:41:05;;;;;;;0.70;0.70;;;-1.60;99.90;;;;;;6216048;23;20012;-78
2023/03/08 06:43:31;;;;;;;0.60;0.60;;;-1.50;99.90;;;;;;6216174;23;20024;-77
2023/03/08 06:45:57;;;;;;;0.68;0.68;;;-1.50;99.90;;;;;;6188963;23;20337;-75
2023/03/08 06:48:23;;;;;;;0.60;0.60;;;-1.60;99.90;;;;;;6214215;23;20016;-77
2023/03/08 06:50:49;;;;;;;0.60;0.60;;;-1.60;99.90;;;;;;6214169;23;20116;-77
2023/03/08 06:53:15;;;;;;;0.60;0.60;;;-1.60;99.90;;;;;;6239501;23;20017;-76
2023/03/08 06:55:41;;;;;;;0.60;0.60;;;-1.40;99.90;;;;;;6214063;23;20008;-75
2023/03/08 06:58:07;;;;;;;0.50;0.50;;;-1.50;99.90;;;;;;6214058;23;20013;-76
2023/03/08 07:00:33;;;;;;;0.60;0.60;;;-1.40;99.90;;;;;;6214167;23;20517;-75
2023/03/08 07:02:59;;;;;;;0.70;0.70;;;-1.30;99.90;;;;;;6215491;23;20137;-75
2023/03/08 07:05:25;;;;;;;0.70;0.70;;;-1.30;99.90;;;;;;6214036;23;20013;-75
2023/03/08 07:07:51;;;;;;;0.70;0.70;;;-1.30;99.90;;;;;;6239535;23;20012;-75
2023/03/08 07:10:19;;;;;;;0.60;0.60;;;-1.30;99.90;;;;;;6189763;23;20016;-75
2023/03/08 07:12:48;;;;;;;0.60;0.60;;;-1.20;99.90;;;;;;6215917;23;20005;-76
2023/03/08 07:15:17;;;;;;;0.70;0.70;;;-1.20;99.90;;;;;;6190785;23;20009;-75
2023/03/08 07:17:44;;;;;;;0.73;0.73;;;-1.00;99.90;;;;;;6215898;23;20104;-75
2023/03/08 07:20:12;;;;;;;0.70;0.70;;;-1.10;99.90;;;;;;6190814;23;20074;-77
2023/03/08 07:22:40;;;;;;;0.60;0.60;;;-1.00;99.90;;;;;;6215646;23;20012;-73
2023/03/08 07:25:07;;;;;;;0.70;0.70;;;-1.00;99.90;;;;;;6240986;23;20520;-75
2023/03/08 07:27:33;;;;;;;0.63;0.63;;;-1.00;99.90;;;;;;6216058;23;20335;-75
2023/03/08 07:29:59;;;;;;;0.60;0.60;;;-0.90;99.90;;;;;;6190847;23;20012;-75
2023/03/08 07:32:27;;;;;;;0.52;0.52;;;-0.90;99.90;;;;;;6217713;23;20013;-75
2023/03/08 07:34:54;;;;;;;0.70;0.70;;;-0.70;99.90;;;;;;6215736;23;20477;-75
2023/03/08 07:37:20;;;;;;;0.60;0.60;;;-0.70;99.90;;;;;;6216079;23;20329;-75
2023/03/08 07:39:45;;;;;;;0.70;0.70;;;-0.60;99.90;;;;;;6215844;23;20017;-75
2023/03/08 07:42:11;;;;;;;0.68;0.68;;;-0.80;99.90;;;;;;6215804;23;20016;-75
2023/03/08 07:44:37;;;;;;;0.50;0.50;;;-0.60;99.90;;;;;;6241773;23;20350;-74
2023/03/08 07:47:04;;;;;;;0.63;0.63;;;-0.60;99.90;;;;;;6216184;23;20341;-76
2023/03/08 07:49:30;;;;;;;0.70;0.70;;;-0.60;99.90;;;;;;6241536;23;20008;-70
2023/03/08 07:51:56;;;;;;;0.60;0.60;;;-0.50;99.90;;;;;;6215809;23;20103;-71
2023/03/08 07:54:22;;;;;;;0.60;0.60;;;-0.30;99.90;;;;;;6215494;23;20350;-72
2023/03/08 07:56:51;;;;;;;0.60;0.60;;;-0.40;99.90;;;;;;6215989;23;20021;-72
2023/03/08 07:59:16;;;;;;;0.70;0.70;;;-0.50;99.90;;;;;;6215691;23;20079;-71
2023/03/08 08:01:42;;;;;;;0.50;0.50;;;-0.30;99.90;;;;;;6215378;23;20013;-71
2023/03/08 08:04:08;;;;;;;0.60;0.60;;;-0.30;99.90;;;;;;6217923;23;20008;-72
2023/03/08 08:06:35;;;;;;;0.60;0.60;;;-0.40;99.90;;;;;;6215213;23;20055;-72
2023/03/08 08:09:01;;;;;;;0.60;0.60;;;-0.20;99.90;;;;;;6215322;23;20020;-71
2023/03/08 08:11:27;;;;;;;0.60;0.60;;;-0.20;99.90;;;;;;6217158;23;20009;-72
2023/03/08 08:13:53;;;;;;;0.52;0.52;;;-0.20;99.90;;;;;;6215358;23;20012;-72
2023/03/08 08:16:19;;;;;;;0.50;0.50;;;0.10;99.90;;;;;;6216723;23;20019;-72
2023/03/08 08:18:44;;;;;;;0.60;0.60;;;0.10;99.90;;;;;;6215176;23;20024;-72
2023/03/08 08:21:13;;;;;;;0.60;0.60;;;0.10;99.90;;;;;;6215131;23;20066;-72
2023/03/08 08:23:40;;;;;;;0.55;0.55;;;0.20;99.90;;;;;;6215103;23;20421;-74
2023/03/08 08:26:15;;;;;;;0.63;0.63;;;0.20;99.90;;;;;;6214992;23;20012;-71
2023/03/08 08:28:41;;;;;;;0.50;0.50;;;0.10;99.90;;;;;;6215089;23;20020;-71
2023/03/08 08:31:10;;;;;;;0.50;0.50;;;0.20;99.90;;;;;;6215056;23;20015;-70
2023/03/08 08:33:36;;;;;;;0.57;0.57;;;0.50;99.90;;;;;;6216891;23;20008;-69
2023/03/08 08:36:05;;;;;;;0.50;0.50;;;0.60;99.90;;;;;;6215474;23;20353;-69
2023/03/08 08:38:31;;;;;;;0.50;0.50;;;0.50;99.90;;;;;;6215245;23;20067;-70
2023/03/08 08:41:00;;;;;;;0.47;0.47;;;0.80;99.90;;;;;;6216858;23;20016;-70
2023/03/08 08:43:26;;;;;;;0.47;0.47;;;0.80;99.90;;;;;;6216801;23;20009;-69
2023/03/08 08:45:55;;;;;;;0.57;0.57;;;0.70;99.90;;;;;;6189853;23;20020;-70
2023/03/08 08:48:22;;;;;;;0.60;0.60;;;1.00;99.90;;;;;;6214791;23;20016;-69
2023/03/08 08:50:48;;;;;;;0.60;0.60;;;0.80;99.90;;;;;;6214887;23;20015;-70
2023/03/08 08:53:14;;;;;;;0.50;0.50;;;1.00;99.90;;;;;;6216254;23;20028;-70
2023/03/08 08:55:40;;;;;;;0.50;0.50;;;0.90;99.90;;;;;;6189926;23;20031;-70
2023/03/08 08:58:05;;;;;;;0.40;0.40;;;1.10;99.90;;;;;;6216764;23;20009;-70
2023/03/08 09:00:32;;;;;;;0.40;0.40;;;1.10;99.90;;;;;;6214888;23;20079;-77
2023/03/08 09:03:02;;;;;;;0.43;0.43;;;1.10;99.90;;;;;;6216721;23;20013;-75
2023/03/08 09:05:28;;;;;;;0.50;0.50;;;1.10;99.90;;;;;;6214671;23;20020;-74
2023/03/08 09:07:59;;;;;;;0.35;0.35;;;1.10;99.90;;;;;;6215530;23;20016;-74
2023/03/08 09:10:28;;;;;;;;;;;1.20;99.90;;;;;;6240867;23;20013;-70
2023/03/08 09:12:54;;;;;;;0.50;0.50;;;1.30;99.90;;;;;;6189644;23;20249;-72
2023/03/08 09:15:20;;;;;;;0.50;0.50;;;1.40;99.90;;;;;;6189803;23;20232;-71
2023/03/08 09:17:46;;;;;;;0.50;0.50;;;1.30;99.90;;;;;;6214564;23;20017;-71
2023/03/08 09:20:12;;;;;;;0.50;0.50;;;1.50;99.90;;;;;;6214549;23;20024;-71
2023/03/08 09:22:39;;;;;;;0.40;0.40;;;1.40;99.90;;;;;;6214603;23;20337;-71
2023/03/08 09:25:06;;;;;;;0.50;0.50;;;1.50;99.90;;;;;;6214630;23;20017;-71
2023/03/08 09:27:32;;;;;;;0.47;0.47;;;1.40;99.90;;;;;;6216253;23;20055;-71
2023/03/08 09:29:57;;;;;;;0.50;0.50;;;1.40;99.90;;;;;;6214558;23;20012;-71
2023/03/08 09:32:24;;;;;;;0.50;0.50;;;1.50;99.90;;;;;;6215705;23;20040;-71
2023/03/08 09:34:50;;;;;;;0.60;0.60;;;1.60;99.90;;;;;;6214608;23;20307;-71
2023/03/08 09:37:16;;;;;;;0.40;0.40;;;1.50;99.90;;;;;;6216386;23;20092;-71
2023/03/08 09:39:43;;;;;;;0.50;0.50;;;1.60;99.90;;;;;;6214404;23;20379;-71
2023/03/08 09:42:26;;;;;;;0.50;0.50;;;1.70;99.90;;;;;;6240163;23;20047;-71
2023/03/08 09:45:13;;;;;;;0.50;0.50;;;1.70;99.90;;;;;;6216293;23;20091;-71
2023/03/08 09:48:10;;;;;;;0.50;0.50;;;1.60;99.90;;;;;;6214258;23;20465;-72
2023/03/08 09:50:49;;;;;;;0.50;0.50;;;1.50;99.90;;;;;;6208340;23;20016;-71
2023/03/08 09:53:39;;;;;;;0.50;0.50;;;1.70;99.90;;;;;;6239773;23;20009;-71
2023/03/08 09:56:14;;;;;;;;;;;1.60;99.90;;;;;;6215831;23;20020;-71
2023/03/08 09:59:21;;;;;;;0.60;0.60;;;1.60;99.90;;;;;;6214353;23;20387;-72
2023/03/08 10:02:24;;;;;;;0.47;0.47;;;1.60;99.90;;;;;;6099811;23;20018;-72
2023/03/08 10:05:01;;;;;;;0.40;0.40;;;1.50;99.90;;;;;;6124085;23;20014;-72
2023/03/08 10:07:48;;;;;;;0.60;0.60;;;1.60;99.90;;;;;;6099500;23;20025;-71
2023/03/08 10:10:19;;;;;;;0.57;0.57;;;1.60;99.90;;;;;;6124191;23;20119;-72
2023/03/08 10:12:48;;;;;;;0.50;0.50;;;1.70;99.90;;;;;;6099668;23;20037;-72
2023/03/08 10:15:17;;;;;;;0.45;0.45;;;1.70;99.90;;;;;;6099760;23;20444;-71
2023/03/08 10:17:51;;;;;;;0.50;0.50;;;1.80;99.90;;;;;;6124032;23;20491;-73
2023/03/08 10:20:24;;;;;;;0.50;0.50;;;1.90;99.90;;;;;;6099996;23;20018;-72
2023/03/08 10:23:05;;;;;;;0.45;0.45;;;1.80;99.90;;;;;;6124039;23;20014;-72
2023/03/08 10:25:33;;;;;;;0.50;0.50;;;1.80;99.90;;;;;;6124141;23;20025;-72
2023/03/08 10:28:02;;;;;;;0.50;0.50;;;1.80;99.90;;;;;;6099542;23;20497;-72
2023/03/08 10:30:34;;;;;;;0.52;0.52;;;1.80;99.90;;;;;;6099559;23;20014;-71
2023/03/08 10:33:06;;;;;;;0.43;0.43;;;1.90;99.90;;;;;;6124213;23;20025;-73
2023/03/08 10:35:48;;;;;;;0.47;0.47;;;1.90;99.90;;;;;;6123952;23;20440;-77
2023/03/08 10:38:15;;;;;;;0.50;0.50;;;2.00;99.90;;;;;;6161319;23;20399;-73
2023/03/08 10:40:41;;;;;;;0.45;0.45;;;1.90;99.90;;;;;;6214138;23;20020;-73
2023/03/08 10:43:23;;;;;;;0.45;0.45;;;1.80;99.90;;;;;;6214084;23;20354;-73
2023/03/08 10:46:04;;;;;;;0.43;0.43;;;1.80;99.90;;;;;;6216836;23;20013;-73
2023/03/08 10:48:30;;;;;;;0.50;0.50;;;1.90;99.90;;;;;;6217894;23;20092;-73
2023/03/08 10:51:01;;;;;;;0.52;0.52;;;1.90;99.90;;;;;;6216559;23;20364;-73
2023/03/08 10:53:28;;;;;;;0.50;0.50;;;2.00;99.90;;;;;;6215806;23;20084;-74
2023/03/08 10:55:56;;;;;;;0.50;0.50;;;2.00;99.90;;;;;;6191636;23;20019;-74
2023/03/08 10:58:29;;;;;;;0.40;0.40;;;1.90;99.90;;;;;;6217402;23;20446;-74
2023/03/08 11:00:57;;;;;;;0.40;0.40;;;2.00;99.90;;;;;;6241893;23;20015;-76
2023/03/08 11:03:24;;;;;;;0.40;0.40;;;2.20;99.90;;;;;;6216236;23;20020;-76
2023/03/08 11:06:13;;;;;;;0.40;0.40;;;2.30;99.90;;;;;;6215808;23;20059;-76
2023/03/08 11:08:51;;;;;;;0.40;0.40;;;2.50;99.90;;;;;;6217939;23;20008;-74
2023/03/08 11:11:17;;;;;;;0.40;0.40;;;2.50;99.90;;;;;;6215937;23;20055;-76
2023/03/08 11:13:45;;;;;;;0.40;0.40;;;2.70;99.90;;;;;;6215993;23;20016;-75
2023/03/08 11:16:42;;;;;;;0.40;0.40;;;2.80;99.90;;;;;;6190945;23;20028;-75
2023/03/08 11:19:30;;;;;;;0.50;0.50;;;2.80;99.90;;;;;;6215939;23;20013;-85
2023/03/08 11:22:40;;;;;;;0.50;0.50;;;2.80;99.90;;;;;;6216016;23;20012;-73
2023/03/08 11:25:18;;;;;;;0.40;0.40;;;2.90;99.90;;;;;;6182592;23;20013;-77
2023/03/08 11:28:02;;;;;;;0.40;0.40;;;3.00;99.90;;;;;;6241360;23;20013;-74
2023/03/08 11:30:57;;;;;;;0.40;0.40;;;3.10;99.90;;;;;;6215853;23;20016;-71
2023/03/08 11:33:35;;;;;;;0.40;0.40;;;3.10;99.90;;;;;;6172857;23;20024;-80
2023/03/08 11:36:30;;;;;;;0.50;0.50;;;3.10;99.90;;;;;;6241676;23;20024;-77
2023/03/08 11:39:10;;;;;;;0.40;0.40;;;3.20;99.90;;;;;;6165952;23;20108;-75
2023/03/08 11:41:39;;;;;;;;;;;3.20;99.90;;;;;;6216130;23;20458;-75
2023/03/08 11:44:07;;;;;;;0.47;0.47;;;3.20;99.90;;;;;;6216643;23;19911;-86
2023/03/08 11:46:44;;;;;;;0.40;0.40;;;3.30;99.90;;;;;;6240872;23;20012;-72
2023/03/08 11:49:39;;;;;;;0.30;0.30;;;3.20;99.90;;;;;;6217338;23;20322;-72
2023/03/08 11:53:00;;;;;;;0.40;0.40;;;3.40;99.90;;;;;;6215493;23;20016;-72
2023/03/08 11:55:25;;;;;;;0.40;0.40;;;3.40;99.90;;;;;;6100516;23;20030;-72
2023/03/08 11:57:57;;;;;;;0.43;0.43;;;3.40;99.90;;;;;;6100811;23;20476;-72
2023/03/08 12:00:28;;;;;;;0.32;0.32;;;3.40;99.90;;;;;;6077651;23;20045;-72
2023/03/08 12:03:00;;;;;;;0.40;0.40;;;3.50;99.90;;;;;;6101420;23;20018;-72
2023/03/08 12:05:29;;;;;;;0.40;0.40;;;3.50;99.90;;;;;;6125474;23;20353;-71
2023/03/08 12:08:04;;;;;;;0.40;0.40;;;3.50;99.90;;;;;;6100393;23;20049;-71
2023/03/08 12:10:44;;;;;;;0.43;0.43;;;3.60;99.90;;;;;;6100596;23;20013;-71
2023/03/08 12:13:33;;;;;;;0.40;0.40;;;3.70;99.90;;;;;;6124987;23;20089;-71
2023/03/08 12:16:21;;;;;;;0.50;0.50;;;3.70;99.90;;;;;;6100602;23;20360;-72
2023/03/08 12:19:17;;;;;;;0.40;0.40;;;3.70;99.90;;;;;;6100432;23;20018;-71
2023/03/08 12:22:10;;;;;;;0.50;0.50;;;3.70;99.90;;;;;;6100571;23;20017;-71
2023/03/08 12:24:45;;;;;;;0.50;0.50;;;3.70;99.90;;;;;;6100402;23;20104;-71
2023/03/08 12:27:31;;;;;;;0.40;0.40;;;3.70;99.90;;;;;;6124768;23;20071;-72
2023/03/08 12:30:09;;;;;;;0.50;0.50;;;3.60;99.90;;;;;;6183532;23;20433;-72
2023/03/08 12:32:37;;;;;;;0.40;0.40;;;3.80;99.90;;;;;;6214976;23;20013;-71
2023/03/08 12:35:22;;;;;;;0.60;0.60;;;3.80;99.90;;;;;;6189825;23;20012;-71
2023/03/08 12:37:56;;;;;;;0.50;0.50;;;3.80;99.90;;;;;;6214789;23;20024;-71
2023/03/08 12:40:45;;;;;;;0.40;0.40;;;3.90;99.90;;;;;;6214776;23;20323;-71
2023/03/08 12:43:20;;;;;;;0.40;0.40;;;3.90;99.90;;;;;;6214318;23;20042;-72
2023/03/08 12:45:46;;;;;;;0.40;0.40;;;4.10;99.90;;;;;;6214910;23;20092;-72
2023/03/08 12:48:24;;;;;;;0.30;0.30;;;4.10;99.90;;;;;;6240504;23;20013;-72
2023/03/08 12:50:52;;;;;;;0.50;0.50;;;4.20;99.90;;;;;;6214886;23;20019;-72
2023/03/08 12:53:54;;;;;;;0.40;0.40;;;4.20;99.90;;;;;;6214540;23;20084;-72
2023/03/08 12:56:35;;;;;;;0.50;0.50;;;4.30;99.90;;;;;;6240490;23;20020;-72
2023/03/08 12:59:21;;;;;;;0.38;0.38;;;4.30;99.90;;;;;;6214895;23;20064;-72
2023/03/08 13:02:00;;;;;;;0.40;0.40;;;4.50;99.90;;;;;;6200559;23;20017;-72
2023/03/08 13:04:32;;;;;;;0.40;0.40;;;4.50;99.90;;;;;;6216851;23;20016;-72